Time;durP1;ratioP1;P1;durP2;ratioP2;P2;SDS_P1;SDS_P2;PMS_P1;PMS_P2;Temp;Humidity;BMP_temperature;BMP_pressure;BME280_temperature;BME280_humidity;BME280_pressure;Samples;Min_cycle;Max_cycle;Signal;HPM_P1;HPM_P2
2022/11/13 00:00:44;;;;;;;25.20;14.70;;;;;;;8.78;100.00;102354.50;5043910;28;20064;-72
2022/11/13 00:03:11;;;;;;;26.98;15.02;;;;;;;8.75;100.00;102359.94;5041329;28;20053;-71
2022/11/13 00:05:37;;;;;;;28.23;15.38;;;;;;;8.71;100.00;102359.78;5054814;28;20067;-71
2022/11/13 00:08:03;;;;;;;27.42;15.45;;;;;;;8.64;100.00;102347.75;5025550;28;20060;-72
2022/11/13 00:10:30;;;;;;;25.52;14.35;;;;;;;8.65;100.00;102355.69;5031528;28;20064;-74
2022/11/13 00:12:56;;;;;;;26.67;15.52;;;;;;;8.69;100.00;102348.31;5033151;28;20065;-71
2022/11/13 00:15:23;;;;;;;26.52;14.63;;;;;;;8.63;100.00;102344.16;5036277;28;20053;-72
2022/11/13 00:17:49;;;;;;;28.13;15.27;;;;;;;8.61;100.00;102357.50;5023637;28;20931;-72
2022/11/13 00:20:17;;;;;;;24.90;13.90;;;;;;;8.53;100.00;102357.59;5023983;28;20897;-72
2022/11/13 00:22:44;;;;;;;27.60;15.52;;;;;;;8.48;100.00;102352.31;5013353;28;20053;-73
2022/11/13 00:25:10;;;;;;;28.27;14.80;;;;;;;8.46;100.00;102346.34;5021313;28;20056;-74
2022/11/13 00:27:37;;;;;;;31.63;17.13;;;;;;;8.42;100.00;102346.25;5018919;28;20049;-74
2022/11/13 00:30:04;;;;;;;27.05;14.95;;;;;;;8.39;100.00;102341.41;5035320;28;20049;-74
2022/11/13 00:32:30;;;;;;;29.70;15.68;;;;;;;8.40;100.00;102347.75;5034519;28;20048;-72
2022/11/13 00:34:57;;;;;;;31.33;17.02;;;;;;;8.40;100.00;102337.50;5038639;28;20095;-72
2022/11/13 00:37:23;;;;;;;28.15;15.48;;;;;;;8.37;100.00;102331.88;5027615;28;20052;-73
2022/11/13 00:39:50;;;;;;;28.55;15.88;;;;;;;8.36;100.00;102333.00;5020939;28;20147;-72
2022/11/13 00:42:23;;;;;;;29.85;16.70;;;;;;;8.34;100.00;102338.88;5035852;28;20822;-73
2022/11/13 00:44:50;;;;;;;35.63;16.90;;;;;;;8.28;100.00;102333.91;5043343;28;20614;-72
2022/11/13 00:47:16;;;;;;;30.02;15.30;;;;;;;8.21;100.00;102331.72;5030674;28;20056;-73
2022/11/13 00:49:43;;;;;;;32.58;16.40;;;;;;;8.08;100.00;102332.81;5013127;28;20053;-72
2022/11/13 00:52:09;;;;;;;35.13;17.40;;;;;;;7.99;100.00;102332.91;5027164;28;20057;-72
2022/11/13 00:54:36;;;;;;;33.03;17.42;;;;;;;7.97;100.00;102323.38;5025023;28;20052;-74
2022/11/13 00:57:02;;;;;;;31.83;18.30;;;;;;;7.91;100.00;102319.22;5023712;28;20092;-73
2022/11/13 00:59:29;;;;;;;29.92;18.52;;;;;;;7.93;100.00;102316.94;5019531;28;20468;-74
2022/11/13 01:01:55;;;;;;;32.55;18.85;;;;;;;8.03;100.00;102322.00;5024250;28;20061;-72
2022/11/13 01:04:22;;;;;;;33.95;18.35;;;;;;;8.03;100.00;102317.31;5014069;28;20084;-73
2022/11/13 01:06:48;;;;;;;35.40;18.80;;;;;;;8.07;100.00;102322.13;5018998;28;20051;-72
2022/11/13 01:09:15;;;;;;;29.08;18.10;;;;;;;8.08;100.00;102319.03;5027056;28;20107;-71
2022/11/13 01:11:41;;;;;;;32.97;21.75;;;;;;;8.10;100.00;102319.47;5046520;28;20049;-72
2022/11/13 01:14:08;;;;;;;31.20;18.35;;;;;;;8.09;100.00;102317.88;5039316;28;20128;-73
2022/11/13 01:16:34;;;;;;;28.98;17.20;;;;;;;8.04;100.00;102318.13;5047126;28;20127;-73
2022/11/13 01:19:01;;;;;;;30.92;16.98;;;;;;;7.98;100.00;102314.78;5034900;28;20068;-72
2022/11/13 01:21:27;;;;;;;29.77;16.45;;;;;;;7.98;100.00;102313.97;5033647;28;20060;-73
2022/11/13 01:23:55;;;;;;;26.35;15.52;;;;;;;7.99;100.00;102310.88;5044420;28;20053;-72
2022/11/13 01:26:27;;;;;;;25.63;14.85;;;;;;;8.05;100.00;102308.69;5022469;28;20049;-72
2022/11/13 01:28:56;;;;;;;28.52;15.98;;;;;;;8.07;100.00;102305.59;5023529;28;20053;-72
2022/11/13 01:31:25;;;;;;;29.77;16.40;;;;;;;8.09;100.00;102295.81;5032179;28;20514;-72
2022/11/13 01:33:51;;;;;;;30.45;15.63;;;;;;;8.09;100.00;102295.03;5034904;28;20052;-72
2022/11/13 01:36:21;;;;;;;35.53;16.48;;;;;;;8.12;100.00;102294.34;5030752;28;20051;-72
2022/11/13 01:38:48;;;;;;;29.98;16.13;;;;;;;8.10;100.00;102297.44;5033057;28;20060;-73
2022/11/13 01:41:26;;;;;;;28.17;16.75;;;;;;;8.10;100.00;102283.66;5042418;28;20051;-72
2022/11/13 01:43:54;;;;;;;26.60;14.25;;;;;;;8.10;100.00;102285.63;5036693;28;20067;-72
2022/11/13 01:46:25;;;;;;;25.88;15.77;;;;;;;8.07;100.00;102293.41;5027086;28;20075;-72
2022/11/13 01:49:08;;;;;;;28.63;15.30;;;;;;;8.06;100.00;102285.47;5027877;28;20056;-71
2022/11/13 01:51:42;;;;;;;28.02;14.90;;;;;;;8.09;100.00;102282.03;5016312;28;20054;-73
2022/11/13 01:54:17;;;;;;;27.80;16.10;;;;;;;8.08;100.00;102280.44;5027845;28;20041;-72
2022/11/13 01:56:44;;;;;;;25.88;15.48;;;;;;;8.06;100.00;102276.44;5025410;28;20044;-73
2022/11/13 01:59:33;;;;;;;25.90;15.13;;;;;;;8.03;100.00;102273.19;5002264;28;20057;-72
2022/11/13 02:02:00;;;;;;;27.08;16.38;;;;;;;8.01;100.00;102278.22;5016561;28;20056;-72
2022/11/13 02:04:28;;;;;;;29.17;15.65;;;;;;;8.00;100.00;102279.41;5041670;28;20054;-73
2022/11/13 02:07:06;;;;;;;27.35;15.52;;;;;;;7.93;100.00;102273.63;5043916;28;20052;-72
2022/11/13 02:09:54;;;;;;;29.05;17.25;;;;;;;7.93;100.00;102268.13;5033810;28;20056;-73
2022/11/13 02:12:47;;;;;;;28.25;15.55;;;;;;;7.89;100.00;102266.38;5052223;28;20045;-73
2022/11/13 02:15:14;;;;;;;26.80;14.93;;;;;;;7.87;100.00;102260.44;5028614;28;20414;-72
2022/11/13 02:17:40;;;;;;;25.92;15.55;;;;;;;7.92;100.00;102260.19;5020594;28;20049;-72
2022/11/13 02:20:08;;;;;;;26.60;15.95;;;;;;;7.88;100.00;102256.53;5040521;28;20052;-72
2022/11/13 02:22:42;;;;;;;27.85;16.45;;;;;;;7.84;100.00;102255.59;5043686;28;20053;-71
2022/11/13 02:25:10;;;;;;;28.83;15.32;;;;;;;7.85;100.00;102255.25;5058010;28;20052;-72
2022/11/13 02:27:42;;;;;;;26.85;15.98;;;;;;;7.81;100.00;102246.06;5057547;28;20052;-71
2022/11/13 02:30:22;;;;;;;26.67;15.05;;;;;;;7.83;100.00;102253.97;5047435;28;20056;-71
2022/11/13 02:32:54;;;;;;;27.23;16.13;;;;;;;7.84;100.00;102266.63;5040746;28;20103;-71
2022/11/13 02:35:25;;;;;;;26.65;14.55;;;;;;;7.81;100.00;102259.03;5039648;28;20049;-70
2022/11/13 02:37:55;;;;;;;27.90;15.05;;;;;;;7.81;100.00;102259.03;5050439;28;20049;-70
2022/11/13 02:40:23;;;;;;;30.55;15.50;;;;;;;7.82;100.00;102257.88;5049104;28;20063;-70
2022/11/13 02:42:49;;;;;;;26.17;14.00;;;;;;;7.76;100.00;102246.28;5050814;28;20056;-69
2022/11/13 02:45:16;;;;;;;26.75;15.45;;;;;;;7.77;100.00;102252.59;5030842;28;20453;-72
2022/11/13 02:47:43;;;;;;;28.17;15.63;;;;;;;7.73;100.00;102238.69;5054036;28;20056;-71
2022/11/13 02:50:10;;;;;;;29.27;15.38;;;;;;;7.68;100.00;102238.09;5041363;28;20048;-70
2022/11/13 02:52:36;;;;;;;26.35;14.95;;;;;;;7.67;100.00;102242.03;5070123;28;20185;-71
2022/11/13 02:55:05;;;;;;;25.25;14.63;;;;;;;7.67;100.00;102237.28;5070485;28;20056;-69
2022/11/13 02:57:31;;;;;;;26.50;14.95;;;;;;;7.65;100.00;102236.03;5046788;28;20051;-72
2022/11/13 02:59:58;;;;;;;25.98;15.43;;;;;;;7.64;100.00;102226.97;5054904;28;20071;-71
2022/11/13 03:02:24;;;;;;;26.90;15.45;;;;;;;7.60;100.00;102225.25;5058969;28;20044;-71
2022/11/13 03:04:51;;;;;;;25.15;14.63;;;;;;;7.60;100.00;102233.50;5040921;28;20044;-72
2022/11/13 03:07:37;;;;;;;24.33;14.05;;;;;;;7.50;100.00;102234.72;5053487;28;20110;-70
2022/11/13 03:10:04;;;;;;;26.45;14.88;;;;;;;7.39;100.00;102224.50;5038457;28;20132;-70
2022/11/13 03:12:31;;;;;;;28.15;15.55;;;;;;;7.42;100.00;102229.31;5055373;28;20056;-71
2022/11/13 03:14:58;;;;;;;25.17;15.00;;;;;;;7.36;100.00;102236.19;5061645;28;20048;-71
2022/11/13 03:17:24;;;;;;;27.75;17.52;;;;;;;7.34;100.00;102232.97;5058202;28;20045;-70
2022/11/13 03:19:51;;;;;;;27.40;16.15;;;;;;;7.29;100.00;102224.94;5048559;28;20053;-71
2022/11/13 03:22:17;;;;;;;23.88;15.13;;;;;;;7.35;100.00;102224.38;5046597;28;20068;-71
2022/11/13 03:24:44;;;;;;;24.00;14.60;;;;;;;7.37;100.00;102224.03;5045154;28;20441;-70
2022/11/13 03:27:10;;;;;;;26.35;14.68;;;;;;;7.38;100.00;102217.38;5061348;28;20394;-72
2022/11/13 03:29:36;;;;;;;27.10;15.30;;;;;;;7.34;100.00;102219.19;5049261;28;20057;-72
2022/11/13 03:32:03;;;;;;;25.33;14.45;;;;;;;7.34;100.00;102213.69;5051986;28;20072;-70
2022/11/13 03:34:30;;;;;;;26.02;14.30;;;;;;;7.30;100.00;102212.75;5039833;28;20067;-73
2022/11/13 03:36:56;;;;;;;24.20;14.25;;;;;;;7.27;100.00;102214.25;5069721;28;20044;-72
2022/11/13 03:39:23;;;;;;;26.85;14.65;;;;;;;7.25;100.00;102208.28;5059764;28;20053;-71
2022/11/13 03:41:49;;;;;;;23.52;14.27;;;;;;;7.21;100.00;102206.53;5060721;28;20056;-71
2022/11/13 03:44:16;;;;;;;27.83;14.95;;;;;;;7.19;100.00;102206.84;5063918;28;20048;-70
2022/11/13 03:46:42;;;;;;;24.35;13.95;;;;;;;7.14;100.00;102206.28;5029673;28;20045;-70
2022/11/13 03:49:08;;;;;;;26.67;14.82;;;;;;;7.12;100.00;102203.06;5031792;28;20052;-72
2022/11/13 03:51:35;;;;;;;24.33;14.65;;;;;;;7.07;100.00;102193.06;5048150;28;20079;-72
2022/11/13 03:54:02;;;;;;;26.52;14.80;;;;;;;7.11;100.00;102202.25;5052774;28;20075;-72
2022/11/13 03:56:28;;;;;;;25.40;13.45;;;;;;;7.10;100.00;102195.16;5044648;28;20752;-72
2022/11/13 03:58:55;;;;;;;25.30;14.15;;;;;;;7.08;100.00;102196.59;5027795;28;20426;-70
2022/11/13 04:01:21;;;;;;;26.15;14.10;;;;;;;7.02;100.00;102198.75;5028771;28;20071;-72
2022/11/13 04:03:48;;;;;;;25.00;14.38;;;;;;;6.96;100.00;102199.31;5029195;28;20083;-73
2022/11/13 04:06:14;;;;;;;24.13;14.50;;;;;;;6.94;100.00;102188.66;5031359;28;20045;-71
2022/11/13 04:08:41;;;;;;;27.08;14.45;;;;;;;6.92;100.00;102196.44;5054100;28;20041;-69
2022/11/13 04:11:09;;;;;;;24.08;14.90;;;;;;;6.93;100.00;102195.31;5064434;28;20064;-73
2022/11/13 04:13:36;;;;;;;25.52;14.63;;;;;;;6.93;100.00;102197.25;5069461;28;20145;-71
2022/11/13 04:16:03;;;;;;;22.80;13.70;;;;;;;6.86;100.00;102186.78;5038816;28;20049;-72
2022/11/13 04:18:30;;;;;;;26.83;14.32;;;;;;;6.89;100.00;102196.31;5048430;28;20053;-70
2022/11/13 04:21:01;;;;;;;26.42;14.10;;;;;;;6.82;100.00;102187.78;5015886;28;20160;-72
2022/11/13 04:23:28;;;;;;;25.67;15.20;;;;;;;6.78;100.00;102181.38;5054965;28;20055;-72
2022/11/13 04:25:54;;;;;;;24.92;14.00;;;;;;;6.76;100.00;102184.44;5043301;28;20056;-73
2022/11/13 04:28:21;;;;;;;25.00;13.57;;;;;;;6.73;100.00;102185.13;5040301;28;20560;-73
2022/11/13 04:30:48;;;;;;;26.08;14.43;;;;;;;6.72;100.00;102182.69;5032614;28;20053;-73
2022/11/13 04:33:14;;;;;;;23.95;14.02;;;;;;;6.72;100.00;102185.44;5027792;28;20057;-71
2022/11/13 04:35:44;;;;;;;24.17;13.82;;;;;;;6.70;100.00;102183.03;5032362;28;20063;-72
2022/11/13 04:38:11;;;;;;;26.95;14.10;;;;;;;6.63;100.00;102173.69;5056432;28;20087;-72
2022/11/13 04:40:39;;;;;;;24.75;13.38;;;;;;;6.64;100.00;102167.06;5051880;28;20061;-73
2022/11/13 04:43:06;;;;;;;23.92;13.80;;;;;;;6.60;100.00;102158.69;5042745;28;20048;-69
2022/11/13 04:45:33;;;;;;;25.35;13.07;;;;;;;6.63;100.00;102174.50;5056318;28;20057;-71
2022/11/13 04:47:59;;;;;;;27.67;15.32;;;;;;;6.61;100.00;102165.00;5030100;28;20084;-70
2022/11/13 04:50:26;;;;;;;28.48;14.52;;;;;;;6.63;100.00;102162.69;5036694;28;20118;-73
2022/11/13 04:52:52;;;;;;;24.98;13.73;;;;;;;6.63;100.00;102157.19;5056468;28;20055;-72
2022/11/13 04:55:19;;;;;;;24.25;14.88;;;;;;;6.60;100.00;102160.63;5049649;28;20053;-71
2022/11/13 04:57:45;;;;;;;25.85;14.27;;;;;;;6.56;100.00;102156.94;5047587;28;20049;-73
2022/11/13 05:00:12;;;;;;;24.75;14.18;;;;;;;6.50;100.00;102163.75;5021126;28;20049;-72
2022/11/13 05:02:38;;;;;;;25.70;14.02;;;;;;;6.52;100.00;102161.50;5028442;28;20064;-68
2022/11/13 05:05:05;;;;;;;24.83;13.55;;;;;;;6.50;100.00;102156.34;5038968;28;20106;-73
2022/11/13 05:07:32;;;;;;;24.63;14.70;;;;;;;6.47;100.00;102161.69;5038142;28;20052;-71
2022/11/13 05:09:58;;;;;;;25.50;13.57;;;;;;;6.41;100.00;102154.78;5041327;28;20052;-73
2022/11/13 05:12:25;;;;;;;22.55;13.40;;;;;;;6.39;100.00;102152.38;5027176;28;20059;-73
2022/11/13 05:14:51;;;;;;;23.98;14.48;;;;;;;6.39;100.00;102146.06;5028018;28;20061;-73
2022/11/13 05:17:18;;;;;;;26.45;15.57;;;;;;;6.36;100.00;102141.22;5028022;28;20057;-72
2022/11/13 05:19:44;;;;;;;23.88;14.10;;;;;;;6.38;100.00;102149.97;5049022;28;20433;-72
2022/11/13 05:22:11;;;;;;;24.55;14.45;;;;;;;6.37;100.00;102151.06;5065686;28;20057;-72
2022/11/13 05:24:37;;;;;;;28.05;15.45;;;;;;;6.35;100.00;102143.16;5039583;28;20057;-72
2022/11/13 05:27:03;;;;;;;25.73;14.88;;;;;;;6.34;100.00;102138.03;5032601;28;20049;-71
2022/11/13 05:29:30;;;;;;;27.55;16.17;;;;;;;6.35;100.00;102139.63;5029733;28;20064;-72
2022/11/13 05:31:56;;;;;;;26.90;14.52;;;;;;;6.32;100.00;102137.56;5029106;28;20049;-71
2022/11/13 05:34:23;;;;;;;22.75;13.68;;;;;;;6.29;100.00;102140.97;5054977;28;20053;-72
2022/11/13 05:36:49;;;;;;;25.55;14.80;;;;;;;6.26;100.00;102130.63;5045310;28;20049;-71
2022/11/13 05:39:16;;;;;;;29.30;15.02;;;;;;;6.24;100.00;102125.47;5055485;28;20061;-72
2022/11/13 05:41:42;;;;;;;29.98;14.43;;;;;;;6.22;100.00;102124.19;5066935;28;20420;-70
2022/11/13 05:44:09;;;;;;;26.65;14.38;;;;;;;6.20;100.00;102121.78;5036044;28;20049;-71
2022/11/13 05:46:35;;;;;;;25.50;13.85;;;;;;;6.18;100.00;102126.00;5040155;28;20471;-74
2022/11/13 05:49:02;;;;;;;24.98;14.60;;;;;;;6.12;100.00;102108.91;5059557;28;20055;-71
2022/11/13 05:51:32;;;;;;;27.70;15.25;;;;;;;6.12;100.00;102108.09;5066395;28;20060;-71
2022/11/13 05:53:59;;;;;;;24.65;14.25;;;;;;;6.09;100.00;102114.25;5054321;28;20110;-71
2022/11/13 05:56:28;;;;;;;22.98;14.40;;;;;;;6.07;100.00;102111.06;5054684;28;20049;-71
2022/11/13 05:58:56;;;;;;;21.98;13.05;;;;;;;6.06;100.00;102106.69;5061783;28;20067;-70
2022/11/13 06:01:28;;;;;;;26.40;14.20;;;;;;;6.05;100.00;102102.31;5032382;28;20068;-71
2022/11/13 06:03:56;;;;;;;24.77;14.35;;;;;;;6.03;100.00;102104.59;5056026;28;20775;-71
2022/11/13 06:06:24;;;;;;;25.77;14.25;;;;;;;5.98;100.00;102104.81;5067354;28;20486;-71
2022/11/13 06:08:52;;;;;;;25.73;14.55;;;;;;;5.97;100.00;102100.44;5067418;28;20071;-73
2022/11/13 06:11:21;;;;;;;25.55;14.95;;;;;;;5.93;100.00;102089.31;5066682;28;20063;-74
2022/11/13 06:13:49;;;;;;;30.20;14.85;;;;;;;5.94;100.00;102098.38;5067610;28;20052;-72
2022/11/13 06:16:18;;;;;;;24.30;13.80;;;;;;;5.90;100.00;102100.19;5050341;28;20830;-73
2022/11/13 06:18:46;;;;;;;25.67;13.98;;;;;;;5.89;100.00;102102.09;5067179;28;20052;-73
2022/11/13 06:21:16;;;;;;;27.55;14.68;;;;;;;5.90;100.00;102094.69;5047215;28;20056;-70
2022/11/13 06:23:43;;;;;;;25.58;14.35;;;;;;;5.88;100.00;102091.44;5050385;28;20531;-72
2022/11/13 06:26:14;;;;;;;24.60;15.10;;;;;;;5.90;100.00;102084.47;5053889;28;20050;-73
2022/11/13 06:28:41;;;;;;;26.95;14.48;;;;;;;5.90;100.00;102089.19;5030553;28;20061;-71
2022/11/13 06:31:12;;;;;;;23.55;14.20;;;;;;;5.93;100.00;102085.75;5033141;28;20064;-71
2022/11/13 06:33:39;;;;;;;26.00;15.32;;;;;;;5.95;100.00;102086.22;5035754;28;20044;-73
2022/11/13 06:36:10;;;;;;;26.35;15.20;;;;;;;5.86;100.00;102082.72;5050520;28;20130;-72
2022/11/13 06:38:38;;;;;;;28.30;14.43;;;;;;;5.79;100.00;102077.72;5048724;28;20053;-73
2022/11/13 06:41:06;;;;;;;25.48;14.45;;;;;;;5.85;100.00;102081.13;5042337;28;20853;-73
2022/11/13 06:43:32;;;;;;;26.00;14.38;;;;;;;5.87;100.00;102085.13;5039463;28;20053;-73
2022/11/13 06:46:06;;;;;;;28.30;14.73;;;;;;;5.88;100.00;102085.97;5054289;28;20080;-73
2022/11/13 06:48:32;;;;;;;26.30;14.07;;;;;;;5.88;100.00;102080.47;5048132;28;20048;-74
2022/11/13 06:51:01;;;;;;;24.05;15.25;;;;;;;5.90;100.00;102078.19;5049446;28;20060;-71
2022/11/13 06:53:28;;;;;;;23.60;13.50;;;;;;;5.88;100.00;102070.28;5047197;28;20051;-72
2022/11/13 06:55:55;;;;;;;27.63;14.65;;;;;;;5.88;100.00;102081.28;5052527;28;20091;-69
2022/11/13 06:58:21;;;;;;;26.58;15.50;;;;;;;5.87;100.00;102076.13;5033422;28;20052;-70
2022/11/13 07:00:48;;;;;;;27.23;15.63;;;;;;;5.88;100.00;102074.97;5041751;28;20061;-72
2022/11/13 07:03:20;;;;;;;27.90;16.48;;;;;;;5.87;100.00;102068.66;5056415;28;20070;-71
2022/11/13 07:05:47;;;;;;;29.52;15.77;;;;;;;5.88;100.00;102074.97;5049294;28;20049;-70
2022/11/13 07:08:14;;;;;;;25.95;15.20;;;;;;;5.87;100.00;102071.41;5048396;28;20052;-71
2022/11/13 07:10:41;;;;;;;28.00;16.13;;;;;;;5.87;100.00;102060.41;5037763;28;20452;-73
2022/11/13 07:13:09;;;;;;;27.45;15.35;;;;;;;5.91;100.00;102071.56;5050164;28;20086;-72
2022/11/13 07:15:37;;;;;;;29.17;16.17;;;;;;;5.90;100.00;102064.47;5053469;28;20056;-71
2022/11/13 07:18:05;;;;;;;26.50;15.35;;;;;;;5.87;100.00;102062.38;5058393;28;20051;-73
2022/11/13 07:20:32;;;;;;;27.92;14.50;;;;;;;5.90;100.00;102068.00;5036383;28;20053;-72
2022/11/13 07:23:02;;;;;;;28.67;15.70;;;;;;;5.91;100.00;102064.13;5037340;28;20692;-72
2022/11/13 07:25:29;;;;;;;26.65;16.05;;;;;;;5.91;100.00;102061.38;5039706;28;20048;-72
2022/11/13 07:27:56;;;;;;;28.98;15.25;;;;;;;5.93;100.00;102055.53;5044168;28;20042;-72
2022/11/13 07:30:22;;;;;;;27.13;16.25;;;;;;;5.96;100.00;102057.59;5052040;28;20045;-70
2022/11/13 07:32:49;;;;;;;28.55;17.33;;;;;;;6.00;100.00;102062.09;5057519;28;20098;-71
2022/11/13 07:35:16;;;;;;;30.75;18.92;;;;;;;6.04;100.00;102056.75;5065618;28;20045;-72
2022/11/13 07:37:43;;;;;;;28.08;17.27;;;;;;;6.08;100.00;102061.25;5052981;28;20048;-70
2022/11/13 07:40:11;;;;;;;30.20;19.13;;;;;;;6.12;100.00;102050.38;5054747;28;20061;-69
2022/11/13 07:42:38;;;;;;;29.10;17.52;;;;;;;6.13;100.00;102052.00;5022727;28;20053;-68
2022/11/13 07:45:05;;;;;;;26.65;17.23;;;;;;;6.13;100.00;102052.00;5030599;28;20049;-70
2022/11/13 07:47:32;;;;;;;28.02;17.25;;;;;;;6.14;100.00;102053.63;5043093;28;20044;-70
2022/11/13 07:49:58;;;;;;;27.27;17.27;;;;;;;6.18;100.00;102049.06;5044447;28;20083;-74
2022/11/13 07:52:35;;;;;;;26.02;16.63;;;;;;;6.21;100.00;102048.38;5046899;28;20056;-70
2022/11/13 07:55:01;;;;;;;26.50;16.63;;;;;;;6.24;100.00;102054.00;5057225;28;20049;-70
2022/11/13 07:57:27;;;;;;;31.50;18.00;;;;;;;6.29;100.00;102051.06;5048928;28;20056;-70
2022/11/13 07:59:54;;;;;;;25.45;16.52;;;;;;;6.34;100.00;102053.59;5035357;28;20057;-71
2022/11/13 08:02:20;;;;;;;31.30;17.90;;;;;;;6.41;100.00;102055.81;5034381;28;20060;-71
2022/11/13 08:04:52;;;;;;;29.92;17.08;;;;;;;6.43;100.00;102042.53;5059603;28;20066;-68
2022/11/13 08:07:18;;;;;;;29.13;17.35;;;;;;;6.52;100.00;102049.53;5056693;28;20062;-67
2022/11/13 08:09:45;;;;;;;31.30;19.38;;;;;;;6.60;100.00;102047.84;5034921;28;20534;-71
2022/11/13 08:12:11;;;;;;;27.20;16.75;;;;;;;6.68;100.00;102038.75;5036620;28;20053;-72
2022/11/13 08:14:38;;;;;;;28.17;16.00;;;;;;;6.77;100.00;102043.00;5049055;28;20059;-72
2022/11/13 08:17:05;;;;;;;26.40;16.50;;;;;;;6.83;100.00;102038.06;5046987;28;20057;-72
2022/11/13 08:19:31;;;;;;;26.35;15.85;;;;;;;6.92;100.00;102041.53;5037415;28;20570;-71
2022/11/13 08:21:57;;;;;;;26.95;16.20;;;;;;;7.02;100.00;102043.88;5048087;28;20041;-72
2022/11/13 08:24:24;;;;;;;28.65;17.23;;;;;;;7.12;100.00;102046.19;5067164;28;20053;-71
2022/11/13 08:26:50;;;;;;;28.70;16.15;;;;;;;7.19;100.00;102029.91;5068385;28;20052;-71
2022/11/13 08:29:17;;;;;;;28.23;17.15;;;;;;;7.31;100.00;102035.38;5043396;28;20426;-70
2022/11/13 08:31:43;;;;;;;26.45;15.35;;;;;;;7.44;100.00;102037.00;5026613;28;20045;-70
2022/11/13 08:34:10;;;;;;;25.92;15.23;;;;;;;7.53;100.00;102032.97;5044211;28;20064;-73
2022/11/13 08:36:36;;;;;;;25.60;14.82;;;;;;;7.66;100.00;102031.81;5043013;28;20140;-70
2022/11/13 08:39:03;;;;;;;25.90;14.63;;;;;;;7.76;100.00;102025.84;5034938;28;20426;-71
2022/11/13 08:41:29;;;;;;;25.63;14.60;;;;;;;7.93;100.00;102025.59;5028986;28;20064;-70
2022/11/13 08:43:56;;;;;;;26.02;14.15;;;;;;;8.04;100.00;102015.66;5051103;28;20516;-72
2022/11/13 08:46:23;;;;;;;23.92;13.82;;;;;;;8.19;100.00;102016.91;5042320;28;20048;-71
2022/11/13 08:48:49;;;;;;;24.58;13.73;;;;;;;8.32;100.00;102015.72;5049497;28;20048;-71
2022/11/13 08:51:17;;;;;;;24.90;13.85;;;;;;;8.48;100.00;102002.00;5037186;28;20041;-72
2022/11/13 08:53:43;;;;;;;23.08;12.98;;;;;;;8.62;100.00;102007.88;5038454;28;20064;-71
2022/11/13 08:56:10;;;;;;;24.58;12.40;;;;;;;8.81;100.00;102000.53;5042203;28;20060;-72
2022/11/13 08:58:37;;;;;;;22.20;12.02;;;;;;;8.98;100.00;101997.41;5047431;28;20049;-71
2022/11/13 09:01:03;;;;;;;25.25;12.30;;;;;;;9.15;100.00;101996.28;5064187;28;20131;-69
2022/11/13 09:03:30;;;;;;;21.02;11.70;;;;;;;9.33;100.00;101995.56;5047682;28;20602;-72
2022/11/13 09:05:56;;;;;;;19.77;10.35;;;;;;;9.50;100.00;101995.19;5042373;28;20069;-72
2022/11/13 09:08:23;;;;;;;20.13;10.80;;;;;;;9.67;100.00;101993.97;5030447;28;20071;-73
2022/11/13 09:10:49;;;;;;;18.88;10.23;;;;;;;9.85;100.00;101984.09;5028484;28;20634;-71
2022/11/13 09:13:16;;;;;;;20.15;10.77;;;;;;;10.05;100.00;101991.25;5030816;28;20064;-72
2022/11/13 09:15:42;;;;;;;20.08;9.88;;;;;;;10.25;100.00;101987.38;5056672;28;20067;-71
2022/11/13 09:18:09;;;;;;;19.42;9.60;;;;;;;10.46;100.00;101993.31;5055332;28;20052;-71
2022/11/13 09:20:36;;;;;;;22.25;11.05;;;;;;;10.66;100.00;101986.59;5012706;28;20053;-71
2022/11/13 09:23:05;;;;;;;18.45;9.75;;;;;;;10.84;100.00;101973.88;5008430;28;20538;-71
2022/11/13 09:25:34;;;;;;;19.73;9.30;;;;;;;11.02;100.00;101974.19;5006765;28;20273;-72
2022/11/13 09:28:04;;;;;;;17.80;8.75;;;;;;;11.22;100.00;101981.25;5023587;28;20072;-72
2022/11/13 09:30:31;;;;;;;16.38;8.77;;;;;;;11.38;100.00;101984.66;5023609;28;20056;-72
2022/11/13 09:32:59;;;;;;;17.85;9.45;;;;;;;11.58;100.00;101977.84;5025092;28;20064;-72
2022/11/13 09:35:33;;;;;;;18.08;9.82;;;;;;;11.77;100.00;101984.09;5028082;28;20054;-70
2022/11/13 09:38:11;;;;;;;19.30;10.13;;;;;;;11.93;100.00;101976.41;5015928;28;20053;-72
2022/11/13 09:40:56;;;;;;;18.98;9.07;;;;;;;12.12;100.00;101981.78;5018975;28;20056;-71
2022/11/13 09:44:01;;;;;;;18.45;9.85;;;;;;;12.33;100.00;101986.81;5016824;28;20552;-68
2022/11/13 09:46:33;;;;;;;17.38;9.57;;;;;;;12.48;100.00;101971.91;4953459;28;20427;-71
2022/11/13 09:49:15;;;;;;;19.45;9.15;;;;;;;12.60;100.00;101972.47;5017291;28;20042;-71
2022/11/13 09:51:54;;;;;;;18.85;9.77;;;;;;;12.81;100.00;101980.19;5021522;28;20088;-71
2022/11/13 09:54:21;;;;;;;19.00;9.55;;;;;;;12.98;100.00;101976.78;5024302;28;20045;-71
2022/11/13 09:57:18;;;;;;;18.92;8.98;;;;;;;13.14;99.28;101971.81;5027905;28;20050;-72
2022/11/13 10:00:14;;;;;;;17.92;9.43;;;;;;;13.31;96.60;101965.59;5032324;28;20049;-71
2022/11/13 10:02:55;;;;;;;19.17;9.45;;;;;;;13.47;95.74;101963.31;5029860;28;20468;-71
2022/11/13 10:05:38;;;;;;;16.73;8.75;;;;;;;13.64;96.00;101961.84;5036422;28;20486;-70
2022/11/13 10:08:23;;;;;;;17.08;9.13;;;;;;;13.84;95.63;101958.34;5034815;28;20536;-71
2022/11/13 10:11:14;;;;;;;18.08;9.32;;;;;;;14.06;89.88;101959.25;5029738;28;20048;-71
2022/11/13 10:14:24;;;;;;;19.08;9.43;;;;;;;14.26;86.31;101943.88;5050259;28;20053;-71
2022/11/13 10:17:17;;;;;;;19.48;8.80;;;;;;;14.44;87.20;101958.63;5037360;28;20170;-71
2022/11/13 10:19:58;;;;;;;17.75;9.15;;;;;;;14.58;85.41;101956.69;5033577;28;20046;-70
2022/11/13 10:22:33;;;;;;;16.88;8.55;;;;;;;14.78;83.65;101962.72;5056274;28;20057;-68
2022/11/13 10:25:29;;;;;;;15.13;8.18;;;;;;;15.05;82.83;101949.97;5022007;28;20049;-69
2022/11/13 10:27:58;;;;;;;17.60;9.63;;;;;;;15.32;82.47;101957.53;5005296;28;20053;-72
2022/11/13 10:30:25;;;;;;;16.48;7.93;;;;;;;15.50;77.70;101947.16;5038456;28;20051;-69
2022/11/13 10:32:52;;;;;;;20.90;8.75;;;;;;;15.78;77.19;101951.09;5060245;28;20577;-70
2022/11/13 10:35:40;;;;;;;16.98;7.90;;;;;;;16.10;76.67;101946.19;5038306;28;20045;-70
2022/11/13 10:38:15;;;;;;;16.98;8.60;;;;;;;16.45;75.25;101934.88;5055220;28;20410;-70
2022/11/13 10:40:41;;;;;;;17.23;8.68;;;;;;;17.05;72.53;101943.63;5069668;28;20044;-70
2022/11/13 10:43:19;;;;;;;16.17;8.45;;;;;;;17.80;71.31;101942.53;5044026;28;20058;-69
2022/11/13 10:46:05;;;;;;;15.30;7.13;;;;;;;19.05;61.13;101933.56;5030754;28;20524;-70
2022/11/13 10:48:34;;;;;;;14.60;7.18;;;;;;;20.27;57.42;101924.03;5033204;28;20049;-70
2022/11/13 10:51:25;;;;;;;12.35;6.53;;;;;;;20.84;48.65;101917.88;5041675;28;20049;-71
2022/11/13 10:53:53;;;;;;;15.75;7.00;;;;;;;21.17;47.35;101911.06;5064420;28;20048;-71
2022/11/13 10:56:19;;;;;;;12.27;6.13;;;;;;;21.89;45.93;101901.03;5044154;28;20041;-71
2022/11/13 10:59:01;;;;;;;13.88;6.30;;;;;;;22.93;44.02;101901.81;5047402;28;20103;-70
2022/11/13 11:01:28;;;;;;;14.07;6.97;;;;;;;24.35;42.49;101893.41;5040409;28;20700;-71
2022/11/13 11:03:54;;;;;;;12.40;6.57;;;;;;;26.34;37.60;101886.69;5022096;28;20148;-70
2022/11/13 11:06:34;;;;;;;11.93;5.68;;;;;;;28.38;32.80;101895.94;5046942;28;20136;-71
2022/11/13 11:09:23;;;;;;;14.50;6.40;;;;;;;30.30;30.34;101896.91;5040349;28;20045;-71
2022/11/13 11:12:14;;;;;;;10.38;5.93;;;;;;;30.78;27.34;101877.81;5029007;28;20072;-71
2022/11/13 11:14:57;;;;;;;14.50;4.93;;;;;;;31.34;26.35;101882.53;5030300;28;20058;-71
2022/11/13 11:17:48;;;;;;;11.10;5.15;;;;;;;32.00;24.48;101885.59;5038951;28;20056;-71
2022/11/13 11:21:02;;;;;;;10.85;5.20;;;;;;;32.54;23.51;101880.41;5038226;28;20055;-70